Time;durP1;ratioP1;P1;durP2;ratioP2;P2;SDS_P1;SDS_P2;PMS_P1;PMS_P2;Temp;Humidity;BMP_temperature;BMP_pressure;BME280_temperature;BME280_humidity;BME280_pressure;Samples;Min_cycle;Max_cycle;Signal;HPM_P1;HPM_P2
2022/06/22 00:02:02;;;;;;;8.73;7.00;;;;;;;14.83;100.00;95890.25;4899236;29;20049;-82
2022/06/22 00:04:32;;;;;;;11.48;6.70;;;;;;;15.02;100.00;95885.97;4899317;29;20051;-81
2022/06/22 00:07:02;;;;;;;10.80;8.18;;;;;;;15.03;100.00;95895.78;4900206;29;20049;-80
2022/06/22 00:09:35;;;;;;;10.70;8.57;;;;;;;15.04;100.00;95889.16;4900515;29;20511;-82
2022/06/22 00:12:03;;;;;;;11.43;7.97;;;;;;;15.19;100.00;95890.25;4900506;29;20063;-83
2022/06/22 00:14:37;;;;;;;10.98;8.05;;;;;;;15.17;100.00;95887.88;4904228;29;20049;-83
2022/06/22 00:17:04;;;;;;;14.93;7.75;;;;;;;15.11;100.00;95878.34;4900327;29;20052;-81
2022/06/22 00:19:35;;;;;;;11.07;6.90;;;;;;;15.17;100.00;95882.38;4904846;29;20052;-83
2022/06/22 00:22:05;;;;;;;9.05;7.03;;;;;;;15.30;100.00;95870.13;4902812;29;20063;-83
2022/06/22 00:24:39;;;;;;;11.60;8.30;;;;;;;15.41;100.00;95859.38;4916003;29;20049;-80
2022/06/22 00:27:30;;;;;;;12.70;7.78;;;;;;;15.57;100.00;95853.81;4907923;29;20536;-82
2022/06/22 00:30:12;;;;;;;13.48;8.35;;;;;;;15.70;100.00;95838.00;4897879;29;20052;-83
2022/06/22 00:32:39;;;;;;;11.35;8.73;;;;;;;15.84;100.00;95838.28;4901406;29;20044;-82
2022/06/22 00:35:38;;;;;;;11.63;7.70;;;;;;;15.98;100.00;95840.50;4906170;29;20056;-83
2022/06/22 00:38:06;;;;;;;17.23;10.05;;;;;;;15.93;100.00;95813.34;4904915;29;20111;-83
2022/06/22 00:40:39;;;;;;;17.70;11.18;;;;;;;16.00;100.00;95808.75;4905136;29;20049;-83
2022/06/22 00:43:06;;;;;;;;;;;;;;;16.06;100.00;95799.06;4901949;29;20052;-81
2022/06/22 00:45:52;;;;;;;21.05;12.43;;;;;;;16.13;100.00;95792.88;4908212;29;19924;-83
2022/06/22 00:48:27;;;;;;;12.32;8.48;;;;;;;16.17;100.00;95783.53;4931512;23;20324;-82
2022/06/22 00:50:58;;;;;;;13.50;10.15;;;;;;;16.25;100.00;95770.72;4908295;29;20131;-84
2022/06/22 00:53:32;;;;;;;16.63;9.95;;;;;;;16.28;100.00;95753.47;4900356;29;20135;-81
2022/06/22 00:56:07;;;;;;;12.05;9.93;;;;;;;16.41;100.00;95751.34;4910815;29;20059;-83
2022/06/22 00:58:39;;;;;;;13.73;9.18;;;;;;;16.55;100.00;95739.75;4903306;29;20047;-82
2022/06/22 01:01:24;;;;;;;17.13;8.02;;;;;;;16.55;100.00;95739.75;4906685;29;20044;-82
2022/06/22 01:04:04;;;;;;;12.93;8.30;;;;;;;16.59;100.00;95740.59;4903184;29;20063;-85
2022/06/22 01:06:41;;;;;;;12.30;7.63;;;;;;;16.69;100.00;95756.44;4904138;29;20041;-84
2022/06/22 01:09:15;;;;;;;12.13;7.05;;;;;;;16.70;100.00;95760.75;4903928;29;20044;-82
2022/06/22 01:14:46;;;;;;;8.52;6.53;;;;;;;16.75;100.00;95776.97;4902977;29;20457;-82
2022/06/22 01:17:21;;;;;;;12.35;6.70;;;;;;;16.72;100.00;95772.22;4904557;29;20072;-84
2022/06/22 01:19:58;;;;;;;10.07;6.63;;;;;;;16.66;100.00;95785.47;4901889;29;20132;-82
2022/06/22 01:22:41;;;;;;;8.80;6.43;;;;;;;16.59;100.00;95785.34;4896119;29;20037;-84
2022/06/22 01:25:30;;;;;;;12.27;6.30;;;;;;;16.48;100.00;95789.13;4898241;29;20505;-82
2022/06/22 01:28:00;;;;;;;9.07;6.75;;;;;;;16.40;100.00;95778.03;4903139;29;20048;-82
2022/06/22 01:30:35;;;;;;;10.65;7.05;;;;;;;16.38;100.00;95780.34;4902430;29;20046;-83
2022/06/22 01:33:07;;;;;;;9.43;7.45;;;;;;;16.39;100.00;95776.44;4898880;29;20052;-81
2022/06/22 01:35:37;;;;;;;9.02;7.43;;;;;;;16.42;100.00;95775.69;4905748;29;20419;-85
2022/06/22 01:38:13;;;;;;;12.05;8.43;;;;;;;16.41;100.00;95774.09;4906059;29;20820;-84
2022/06/22 01:40:45;;;;;;;11.82;8.52;;;;;;;16.46;100.00;95774.97;4898563;29;20044;-81
2022/06/22 01:43:23;;;;;;;9.67;8.33;;;;;;;16.44;100.00;95773.38;4902921;29;20060;-84
2022/06/22 01:45:56;;;;;;;14.20;8.88;;;;;;;16.32;100.00;95770.03;4903353;29;20288;-81
2022/06/22 01:48:28;;;;;;;12.10;8.70;;;;;;;16.36;100.00;95760.69;4900743;29;20044;-81
2022/06/22 01:51:00;;;;;;;9.88;8.27;;;;;;;16.35;100.00;95759.09;4899760;29;20056;-81
2022/06/22 01:53:35;;;;;;;12.13;8.77;;;;;;;16.37;100.00;95756.78;4887039;29;20523;-81
2022/06/22 01:56:10;;;;;;;13.80;8.93;;;;;;;16.34;100.00;95756.72;4902121;29;20056;-82
2022/06/22 01:58:57;;;;;;;14.15;9.63;;;;;;;16.21;100.00;95749.84;4905851;29;20048;-82
2022/06/22 02:01:34;;;;;;;12.57;10.32;;;;;;;16.17;100.00;95745.06;4905040;29;20045;-83
2022/06/22 02:04:14;;;;;;;12.00;9.40;;;;;;;16.13;100.00;95740.69;4903862;29;20066;-84
2022/06/22 02:09:51;;;;;;;11.95;8.77;;;;;;;16.23;100.00;95742.81;4897904;29;20051;-82
2022/06/22 02:12:20;;;;;;;13.77;9.68;;;;;;;16.26;100.00;95738.53;4895836;29;20064;-79
2022/06/22 02:14:52;;;;;;;15.15;8.75;;;;;;;16.20;100.00;95740.81;4896825;29;20040;-80
2022/06/22 02:17:24;;;;;;;11.10;7.82;;;;;;;16.26;100.00;95742.09;4897335;29;20053;-81
2022/06/22 02:20:24;;;;;;;11.30;8.75;;;;;;;16.35;100.00;95742.63;4898786;29;20064;-81
2022/06/22 02:22:53;;;;;;;14.43;8.63;;;;;;;16.37;100.00;95745.78;4897838;29;20052;-80
2022/06/22 02:25:21;;;;;;;8.73;7.32;;;;;;;16.40;100.00;95745.06;4896662;29;20052;-79
2022/06/22 02:27:48;;;;;;;10.65;7.60;;;;;;;16.42;100.00;95753.72;4896649;29;20060;-80
2022/06/22 02:30:16;;;;;;;11.43;8.18;;;;;;;16.46;100.00;95742.00;4896192;29;20045;-79
2022/06/22 02:32:44;;;;;;;11.25;7.35;;;;;;;16.50;100.00;95742.84;4895873;29;20050;-79
2022/06/22 02:35:14;;;;;;;16.13;8.35;;;;;;;16.58;100.00;95744.50;4899094;29;20059;-80
2022/06/22 02:37:45;;;;;;;10.68;7.93;;;;;;;16.61;100.00;95744.56;4892883;29;20049;-80
2022/06/22 02:40:18;;;;;;;10.95;7.95;;;;;;;16.61;100.00;95746.53;4909910;29;20706;-80
2022/06/22 02:45:31;;;;;;;10.20;7.63;;;;;;;16.65;100.00;95733.59;4908006;29;20027;-79
2022/06/22 02:48:02;;;;;;;8.98;7.97;;;;;;;16.68;100.00;95724.63;4900759;29;20049;-80
2022/06/22 02:50:36;;;;;;;11.75;8.23;;;;;;;16.72;100.00;95717.25;4901835;29;20051;-81
2022/06/22 02:53:07;;;;;;;12.25;8.35;;;;;;;16.72;100.00;95722.75;4887746;29;20508;-81
2022/06/22 02:55:36;;;;;;;11.65;7.82;;;;;;;16.53;100.00;95718.13;4903358;29;20045;-81
2022/06/22 02:58:21;;;;;;;9.02;7.55;;;;;;;16.62;100.00;95723.38;4900183;29;20056;-82
2022/06/22 03:00:49;;;;;;;9.68;7.75;;;;;;;16.66;100.00;95724.22;4900967;29;20040;-80
2022/06/22 03:03:18;;;;;;;9.77;8.57;;;;;;;16.70;100.00;95719.53;4900229;29;20052;-81
2022/06/22 03:05:47;;;;;;;9.25;7.90;;;;;;;16.68;100.00;95719.91;4900766;29;20547;-81
2022/06/22 03:08:18;;;;;;;9.10;7.47;;;;;;;16.65;100.00;95739.09;4900954;29;20496;-81
2022/06/22 03:10:50;;;;;;;10.20;7.78;;;;;;;16.64;100.00;95732.81;4902807;29;20128;-80
2022/06/22 03:13:20;;;;;;;7.80;7.00;;;;;;;16.60;100.00;95721.00;4900081;29;20441;-80
2022/06/22 03:15:49;;;;;;;8.27;6.95;;;;;;;16.60;100.00;95720.19;4900056;29;20053;-81
2022/06/22 03:18:19;;;;;;;11.85;7.75;;;;;;;16.59;100.00;95726.84;4899338;29;20044;-81
2022/06/22 03:20:51;;;;;;;10.40;7.40;;;;;;;16.56;100.00;95728.41;4899986;29;20052;-80
2022/06/22 03:23:23;;;;;;;9.10;6.90;;;;;;;16.54;100.00;95730.72;4899948;29;20620;-81
2022/06/22 03:25:53;;;;;;;7.13;6.43;;;;;;;16.57;100.00;95734.69;4900091;29;20052;-80
2022/06/22 03:28:26;;;;;;;9.63;6.93;;;;;;;16.57;100.00;95742.94;4899895;29;20056;-81
2022/06/22 03:30:56;;;;;;;9.75;7.63;;;;;;;16.57;100.00;95748.44;4900479;29;20059;-81
2022/06/22 03:33:27;;;;;;;8.90;7.18;;;;;;;16.59;100.00;95749.63;4890445;29;20051;-83
2022/06/22 03:35:57;;;;;;;9.35;7.50;;;;;;;16.59;100.00;95754.34;4897547;29;20049;-81
2022/06/22 03:38:28;;;;;;;9.00;6.90;;;;;;;16.59;100.00;95746.09;4901722;29;20052;-80
2022/06/22 03:40:58;;;;;;;10.55;7.35;;;;;;;16.61;100.00;95743.78;4900827;29;20048;-80
2022/06/22 03:43:29;;;;;;;9.77;7.20;;;;;;;16.62;100.00;95745.34;4900169;29;20108;-80
2022/06/22 03:46:01;;;;;;;9.60;7.45;;;;;;;16.57;100.00;95751.97;4891475;29;20063;-82
2022/06/22 03:48:32;;;;;;;10.98;7.18;;;;;;;16.55;100.00;95757.06;4899503;29;20040;-80
2022/06/22 03:51:06;;;;;;;11.35;7.60;;;;;;;16.55;100.00;95756.22;4900674;29;20053;-81
2022/06/22 03:54:00;;;;;;;9.48;7.85;;;;;;;16.63;100.00;95757.94;4901122;29;20040;-81
2022/06/22 03:56:29;;;;;;;;;;;;;;;16.64;100.00;95770.50;4905276;29;20056;-82
2022/06/22 03:58:59;;;;;;;10.63;8.00;;;;;;;16.61;100.00;95776.75;4902892;29;19930;-81
2022/06/22 04:01:27;;;;;;;9.13;7.22;;;;;;;16.61;100.00;95769.31;4904683;29;20052;-82
2022/06/22 04:03:56;;;;;;;9.63;7.65;;;;;;;16.67;100.00;95775.28;4907488;29;20053;-83
2022/06/22 04:06:30;;;;;;;8.68;6.93;;;;;;;16.69;100.00;95772.94;4904259;29;20041;-83
2022/06/22 04:08:56;;;;;;;11.18;8.55;;;;;;;16.68;100.00;95779.59;4902049;29;20049;-80
2022/06/22 04:11:31;;;;;;;9.63;7.97;;;;;;;16.65;100.00;95794.91;4900885;29;20413;-80
2022/06/22 04:14:03;;;;;;;8.20;6.90;;;;;;;16.62;100.00;95801.13;4899705;29;20104;-80
2022/06/22 04:16:36;;;;;;;10.05;7.57;;;;;;;16.66;100.00;95801.19;4900393;29;20059;-81
2022/06/22 04:19:07;;;;;;;9.45;7.85;;;;;;;16.70;100.00;95791.00;4899955;29;20056;-80
2022/06/22 04:21:37;;;;;;;11.90;7.80;;;;;;;16.72;100.00;95788.72;4899420;29;20100;-81
2022/06/22 04:24:13;;;;;;;12.60;8.52;;;;;;;16.70;100.00;95791.00;4898880;29;20056;-80
2022/06/22 04:26:44;;;;;;;10.57;8.48;;;;;;;16.78;100.00;95791.94;4901574;29;20512;-81
2022/06/22 04:29:16;;;;;;;9.73;8.35;;;;;;;16.79;100.00;95794.31;4900923;29;20048;-81
2022/06/22 04:31:52;;;;;;;9.73;7.90;;;;;;;16.81;100.00;95803.00;4900743;29;20053;-80
2022/06/22 04:34:37;;;;;;;9.95;8.63;;;;;;;16.88;100.00;95800.34;4899765;29;20049;-80
2022/06/22 04:37:09;;;;;;;11.68;7.90;;;;;;;16.93;100.00;95800.03;4899011;29;20668;-81
2022/06/22 04:39:42;;;;;;;8.93;8.03;;;;;;;16.95;100.00;95796.88;4897117;29;20096;-78
2022/06/22 04:42:10;;;;;;;13.88;9.60;;;;;;;16.94;100.00;95793.34;4901541;29;20059;-79
2022/06/22 04:44:45;;;;;;;17.35;11.98;;;;;;;16.99;100.00;95791.44;4899150;29;20701;-80
2022/06/22 04:47:17;;;;;;;13.90;10.15;;;;;;;17.03;100.00;95795.03;4898507;29;20059;-81
2022/06/22 04:49:51;;;;;;;10.60;8.95;;;;;;;17.15;100.00;95803.03;4897683;29;20044;-80
2022/06/22 04:52:22;;;;;;;11.77;9.73;;;;;;;17.24;100.00;95792.56;4897509;29;20108;-81
2022/06/22 04:54:51;;;;;;;12.70;9.95;;;;;;;17.23;100.00;95807.50;4898815;29;20053;-81
2022/06/22 04:57:21;;;;;;;11.60;9.93;;;;;;;17.25;100.00;95805.16;4897058;29;20061;-80
2022/06/22 04:59:48;;;;;;;16.40;10.23;;;;;;;17.27;100.00;95808.31;4897885;29;20500;-81
2022/06/22 05:02:19;;;;;;;14.20;9.70;;;;;;;17.38;100.00;95809.25;4897481;29;20052;-80
2022/06/22 05:04:51;;;;;;;12.55;9.05;;;;;;;17.41;100.00;95800.22;4897657;29;20509;-80
2022/06/22 05:07:38;;;;;;;12.20;8.70;;;;;;;17.46;100.00;95810.91;4897233;29;20049;-81
2022/06/22 05:10:11;;;;;;;15.93;11.13;;;;;;;17.43;100.00;95802.59;4891002;29;20048;-81
2022/06/22 05:12:44;;;;;;;;;;;;;;;17.53;100.00;95798.38;4898886;29;20048;-79
2022/06/22 05:15:19;;;;;;;10.98;8.13;;;;;;;17.58;100.00;95806.31;4896771;29;19930;-80
2022/06/22 05:17:48;;;;;;;13.63;9.10;;;;;;;17.54;100.00;95810.97;4897170;29;20048;-79
2022/06/22 05:20:19;;;;;;;15.63;9.80;;;;;;;17.54;100.00;95794.47;4897408;29;20052;-81
2022/06/22 05:22:49;;;;;;;12.25;9.32;;;;;;;17.41;100.00;95786.47;4897961;29;20048;-80
2022/06/22 05:25:17;;;;;;;12.00;8.60;;;;;;;17.40;100.00;95793.13;4898463;29;20049;-80
2022/06/22 05:27:55;;;;;;;15.07;10.10;;;;;;;17.34;100.00;95780.88;4899693;29;20056;-81
2022/06/22 05:30:22;;;;;;;14.75;10.48;;;;;;;17.42;100.00;95782.53;4898125;29;20056;-80
2022/06/22 05:32:53;;;;;;;10.68;8.82;;;;;;;17.54;100.00;95786.19;4897943;29;20075;-81
2022/06/22 05:35:26;;;;;;;14.75;9.38;;;;;;;17.54;100.00;95788.94;4899964;29;20060;-82
2022/06/22 05:37:55;;;;;;;12.50;9.45;;;;;;;17.37;100.00;95785.63;4899740;29;20060;-79
2022/06/22 05:40:26;;;;;;;17.13;10.52;;;;;;;17.45;100.00;95776.28;4895645;29;20167;-79
2022/06/22 05:42:53;;;;;;;15.60;10.50;;;;;;;17.46;100.00;95758.59;4894821;29;20517;-79
2022/06/22 05:45:24;;;;;;;14.18;10.85;;;;;;;17.34;100.00;95758.09;4907416;29;20052;-81
2022/06/22 05:47:55;;;;;;;13.43;9.88;;;;;;;17.34;100.00;95758.88;4914719;29;20062;-82
2022/06/22 05:50:35;;;;;;;12.27;9.93;;;;;;;17.40;100.00;95768.38;4892954;29;20136;-80
2022/06/22 05:53:06;;;;;;;18.08;10.68;;;;;;;17.35;100.00;95781.69;4908736;29;20063;-80
2022/06/22 05:55:43;;;;;;;12.05;9.07;;;;;;;17.39;100.00;95788.03;4910702;29;20063;-80
2022/06/22 05:58:14;;;;;;;11.50;8.52;;;;;;;17.46;100.00;95772.38;4909973;29;20055;-79
2022/06/22 06:00:47;;;;;;;12.15;8.93;;;;;;;17.56;100.00;95781.91;4909891;29;20503;-80
2022/06/22 06:03:29;;;;;;;13.90;10.35;;;;;;;17.59;100.00;95789.44;4909406;29;20052;-80
2022/06/22 06:06:01;;;;;;;10.93;9.52;;;;;;;17.61;100.00;95794.56;4911927;29;20056;-79
2022/06/22 07:40:27;;;;;;;14.70;7.95;;;;;;;19.37;100.00;95825.91;5719808;23;20033;-85
2022/06/22 08:16:06;;;;;;;14.40;8.27;;;;;;;19.77;93.31;95837.91;5625326;23;20064;-87
2022/06/22 08:27:30;;;;;;;12.48;8.15;;;;;;;20.12;95.22;95800.47;5439097;23;20020;-85
2022/06/22 08:35:14;;;;;;;19.58;8.43;;;;;;;20.53;91.90;95823.03;4981119;23;20037;-84
2022/06/22 08:43:07;;;;;;;11.38;7.40;;;;;;;20.54;86.89;95842.00;5335803;23;20071;-86
2022/06/22 08:45:59;;;;;;;12.77;7.70;;;;;;;20.58;88.25;95840.03;4983145;23;20116;-80
2022/06/22 08:48:53;;;;;;;10.50;6.80;;;;;;;20.73;88.44;95848.34;4916469;29;20048;-87
2022/06/22 08:51:52;;;;;;;10.63;6.65;;;;;;;20.85;90.51;95845.16;5558885;23;20804;-86
2022/06/22 11:35:50;;;;;;;15.10;7.57;;;;;;;20.73;86.25;95876.00;5236967;23;20028;-80
2022/06/22 11:41:03;;;;;;;14.48;6.57;;;;;;;20.79;86.34;95885.47;5467665;23;20056;-89
2022/06/22 13:02:58;;;;;;;18.45;10.15;;;;;;;21.23;86.68;95870.41;5999561;23;20010;31
2022/06/22 13:05:28;;;;;;;17.52;10.55;;;;;;;21.30;87.07;95867.66;4892688;29;20071;-79
2022/06/22 13:07:58;;;;;;;20.27;10.80;;;;;;;21.33;88.45;95861.31;4896120;29;20052;-79
2022/06/22 13:10:26;;;;;;;21.83;11.55;;;;;;;21.36;89.08;95863.28;4895904;29;20059;-78
2022/06/22 13:12:59;;;;;;;24.85;12.30;;;;;;;21.23;93.33;95864.84;4908287;29;20059;-79
2022/06/22 13:15:30;;;;;;;25.93;13.03;;;;;;;21.10;93.18;95856.19;4913021;29;20689;-79
2022/06/22 13:18:07;;;;;;;24.75;13.25;;;;;;;21.14;93.87;95872.78;4913570;29;20288;-78
2022/06/22 13:20:42;;;;;;;22.60;12.95;;;;;;;21.24;94.43;95866.44;4909073;29;20052;-78
2022/06/22 13:23:17;;;;;;;23.15;13.52;;;;;;;21.16;93.73;95870.41;4895453;29;20113;-78
2022/06/22 13:25:48;;;;;;;23.05;13.98;;;;;;;21.08;94.30;95870.41;4896466;29;20409;-79
2022/06/22 13:28:22;;;;;;;21.70;13.10;;;;;;;21.07;95.57;95873.59;4895698;29;20052;-79
2022/06/22 13:30:55;;;;;;;26.98;15.43;;;;;;;21.17;94.33;95878.31;4904107;29;20048;-78
2022/06/22 13:33:30;;;;;;;22.10;14.00;;;;;;;21.22;94.02;95874.34;4906246;29;20080;-80
2022/06/22 13:36:05;;;;;;;24.58;14.23;;;;;;;21.18;94.80;95874.34;4907514;29;20053;-79
2022/06/22 13:38:59;;;;;;;22.58;13.88;;;;;;;21.24;94.48;95869.19;4902413;29;20052;-81
2022/06/22 13:41:38;;;;;;;27.23;15.93;;;;;;;21.17;94.35;95872.00;4900509;29;20056;-80
2022/06/22 13:44:27;;;;;;;28.77;16.80;;;;;;;20.81;96.73;95870.06;4861740;29;20121;-84
2022/06/22 13:47:09;;;;;;;24.05;12.13;;;;;;;20.73;94.95;95864.94;5290103;23;20031;-79
2022/06/22 13:49:52;;;;;;;21.50;10.63;;;;;;;20.48;92.78;95860.19;4934718;29;20050;-80
2022/06/22 13:52:34;;;;;;;13.00;6.10;;;;;;;20.47;87.99;95864.13;4932194;29;20103;-79
2022/06/22 13:55:27;;;;;;;12.40;4.90;;;;;;;20.39;87.34;95856.97;4921559;29;20056;-81
2022/06/22 13:57:58;;;;;;;13.00;5.50;;;;;;;20.39;86.69;95862.50;4927646;29;20048;-80
2022/06/22 14:00:30;;;;;;;13.50;5.57;;;;;;;20.41;86.91;95865.69;4923538;29;20044;-81
2022/06/22 14:03:13;;;;;;;12.95;5.88;;;;;;;20.31;88.43;95860.94;4927657;29;20046;-90
2022/06/22 14:05:46;;;;;;;14.23;5.72;;;;;;;20.32;89.43;95862.50;4931997;23;20051;-83
2022/06/22 14:08:33;;;;;;;17.45;6.70;;;;;;;20.30;89.13;95864.84;4911886;29;20052;-86
2022/06/22 14:13:35;;;;;;;15.20;6.45;;;;;;;19.96;91.50;95870.72;5125781;23;20063;-84
2022/06/22 14:16:07;;;;;;;16.23;7.00;;;;;;;19.74;93.26;95861.56;4935336;23;20032;-79
2022/06/22 14:18:42;;;;;;;17.98;8.20;;;;;;;19.58;96.16;95860.31;4926577;29;20051;-79
2022/06/22 14:21:22;;;;;;;21.40;8.57;;;;;;;19.59;97.81;95854.41;4940879;29;20047;-81
2022/06/22 14:23:50;;;;;;;17.20;8.57;;;;;;;19.39;99.34;95855.88;4925847;29;20047;-80
2022/06/22 14:26:38;;;;;;;16.55;8.55;;;;;;;19.39;100.00;95869.69;4926019;29;20129;-79
2022/06/22 14:29:16;;;;;;;18.90;9.13;;;;;;;19.52;99.40;95860.69;4920616;29;20056;-84
2022/06/22 14:31:53;;;;;;;18.83;10.45;;;;;;;19.51;100.00;95874.84;4919465;29;20054;-78
2022/06/22 14:34:32;;;;;;;19.33;10.20;;;;;;;19.42;100.00;95875.22;4931193;29;20064;-80
2022/06/22 14:37:07;;;;;;;22.63;11.65;;;;;;;19.32;100.00;95881.47;4922676;29;20063;-79
2022/06/22 14:39:42;;;;;;;23.73;12.77;;;;;;;19.27;100.00;95868.03;4920058;29;20067;-80
2022/06/22 14:42:16;;;;;;;24.10;12.93;;;;;;;19.37;100.00;95881.13;4913901;29;20051;-81
2022/06/22 14:44:52;;;;;;;20.40;12.20;;;;;;;19.53;100.00;95878.03;4921132;29;20082;-80
2022/06/22 14:47:25;;;;;;;20.70;12.10;;;;;;;19.65;100.00;95885.22;4924515;29;20526;-79
2022/06/22 14:49:56;;;;;;;;;;;;;;;19.61;100.00;95878.88;4919422;29;20048;-79
2022/06/22 14:52:30;;;;;;;22.17;14.00;;;;;;;19.59;100.00;95879.28;4917515;29;19927;-77
2022/06/22 14:55:05;;;;;;;24.63;14.82;;;;;;;19.62;100.00;95874.94;4918388;29;20104;-79
2022/06/22 14:57:35;;;;;;;16.95;13.27;;;;;;;19.64;100.00;95873.38;4918031;29;20051;-79
2022/06/22 15:00:29;;;;;;;25.77;15.60;;;;;;;19.62;100.00;95863.88;4917711;29;20076;-77
2022/06/22 15:03:05;;;;;;;26.75;15.57;;;;;;;19.63;100.00;95865.47;4914938;29;20048;-75
2022/06/22 15:05:36;;;;;;;19.00;13.32;;;;;;;19.75;100.00;95867.88;4916785;29;20662;-78
2022/06/22 15:08:10;;;;;;;23.52;16.40;;;;;;;19.75;100.00;95874.22;4915172;29;20047;-79
2022/06/22 15:10:42;;;;;;;23.10;15.23;;;;;;;19.74;100.00;95869.88;4916679;29;20703;-77
2022/06/22 15:13:17;;;;;;;24.35;17.25;;;;;;;19.81;100.00;95867.13;4899658;29;20148;-79
2022/06/22 15:15:49;;;;;;;23.80;15.65;;;;;;;19.94;100.00;95873.09;4899483;29;20040;-80
2022/06/22 15:18:31;;;;;;;26.70;18.38;;;;;;;19.97;100.00;95868.75;4912628;29;20054;-86
2022/06/22 15:21:02;;;;;;;26.40;17.38;;;;;;;20.06;100.00;95867.19;4916710;29;20057;-80
2022/06/22 15:23:35;;;;;;;25.25;17.80;;;;;;;20.12;100.00;95858.53;4903716;29;20036;-78
2022/06/22 15:26:11;;;;;;;30.05;19.70;;;;;;;20.16;100.00;95862.09;4899549;29;20048;-76
2022/06/22 15:28:48;;;;;;;27.33;17.60;;;;;;;20.21;100.00;95862.50;4908248;29;20049;-78
2022/06/22 15:31:43;;;;;;;29.67;16.95;;;;;;;20.08;100.00;95856.53;4918064;29;20072;-77
2022/06/22 15:50:07;;;;;;;25.45;17.65;;;;;;;20.00;100.00;95851.41;5369317;23;20034;-85
2022/06/22 16:26:18;;;;;;;20.70;15.35;;;;;;;20.31;100.00;95808.41;5764861;23;20064;-80
2022/06/22 16:55:17;;;;;;;27.70;16.90;;;;;;;20.62;98.81;95814.31;5543693;23;20108;-80
2022/06/22 17:03:03;;;;;;;27.88;15.30;;;;;;;20.67;98.27;95819.47;5417135;23;20067;-80
2022/06/22 17:05:38;;;;;;;19.88;13.05;;;;;;;20.70;98.28;95821.44;4926890;29;20060;-80
2022/06/22 17:08:15;;;;;;;20.13;14.27;;;;;;;20.69;98.30;95817.91;4925460;29;20039;-80
2022/06/22 17:10:51;;;;;;;19.80;13.65;;;;;;;20.72;98.44;95814.31;4916582;29;20320;-84
2022/06/22 17:13:22;;;;;;;23.75;18.15;;;;;;;20.69;98.69;95814.34;4897597;29;20053;-86
2022/06/22 17:16:07;;;;;;;29.42;19.17;;;;;;;20.68;99.13;95812.75;4893101;29;20060;-83
2022/06/22 17:18:45;;;;;;;22.08;16.05;;;;;;;20.71;98.82;95812.75;4895873;29;20052;-83
2022/06/22 17:21:26;;;;;;;22.52;15.85;;;;;;;20.76;98.77;95809.56;4999975;23;20031;-81
2022/06/22 17:24:02;;;;;;;24.67;16.63;;;;;;;20.74;98.95;95805.66;4914337;29;20056;-81
2022/06/22 17:26:41;;;;;;;23.63;16.25;;;;;;;20.76;98.91;95806.03;4914155;29;20404;-78
2022/06/22 17:29:14;;;;;;;20.08;14.32;;;;;;;20.78;98.63;95796.16;4911643;29;20115;-79
2022/06/22 17:31:46;;;;;;;22.73;16.27;;;;;;;20.81;98.80;95789.00;5513377;23;20092;-83
2022/06/22 17:34:21;;;;;;;18.23;14.07;;;;;;;20.82;98.91;95791.38;4938237;29;20036;-81
2022/06/22 17:37:14;;;;;;;21.25;15.25;;;;;;;20.85;99.03;95795.34;4939431;29;20032;-83
2022/06/22 17:40:02;;;;;;;21.75;14.35;;;;;;;20.84;98.70;95799.31;4929111;29;20036;-83
2022/06/22 17:42:47;;;;;;;19.52;14.25;;;;;;;20.84;98.67;95811.16;4935005;29;20040;-80
2022/06/22 17:45:22;;;;;;;20.92;14.40;;;;;;;20.83;98.88;95803.25;4932675;29;20048;-82
2022/06/22 17:47:52;;;;;;;20.23;14.98;;;;;;;20.83;98.52;95811.56;4897085;23;1249059;-83
2022/06/22 17:50:25;;;;;;;17.77;14.60;;;;;;;20.83;98.52;95808.81;4909714;29;20315;-81
2022/06/22 17:52:56;;;;;;;19.23;13.98;;;;;;;20.80;97.60;95804.84;5001598;23;20061;-81
2022/06/22 17:55:27;;;;;;;19.25;13.32;;;;;;;20.79;97.41;95808.00;4918436;29;20051;-81
2022/06/22 17:58:00;;;;;;;16.00;12.65;;;;;;;20.79;96.44;95805.25;4920650;29;20104;-81
2022/06/22 18:00:35;;;;;;;16.08;12.13;;;;;;;20.77;96.32;95802.84;5050709;23;20040;-80
2022/06/22 18:03:11;;;;;;;16.58;13.00;;;;;;;20.77;95.71;95800.09;4908278;29;20092;-76
2022/06/22 18:05:47;;;;;;;13.50;11.73;;;;;;;20.77;95.80;95793.75;4909873;29;20036;-80
2022/06/22 18:08:22;;;;;;;22.15;14.05;;;;;;;20.75;96.50;95796.94;4988328;23;20048;-84
2022/06/22 18:11:01;;;;;;;15.98;11.25;;;;;;;20.75;96.69;95791.41;5061086;23;20054;-80
2022/06/22 18:13:36;;;;;;;19.00;13.23;;;;;;;20.76;96.85;95803.25;5333269;23;20324;-79
2022/06/22 18:16:04;;;;;;;24.25;16.02;;;;;;;20.72;96.52;95796.94;4882042;29;20053;-81
2022/06/22 18:21:21;;;;;;;21.45;14.77;;;;;;;20.72;96.72;95802.47;4968250;23;20370;-79
2022/06/22 18:23:52;;;;;;;23.15;15.90;;;;;;;20.65;97.57;95799.72;4914099;29;20048;-78
2022/06/22 18:26:21;;;;;;;18.55;12.93;;;;;;;20.66;97.55;95793.00;4912287;29;20464;-78
2022/06/22 18:28:55;;;;;;;18.52;12.15;;;;;;;20.71;97.31;95795.34;4916422;29;20058;-78
2022/06/22 18:31:29;;;;;;;18.48;12.68;;;;;;;20.70;97.83;95793.78;4919544;29;20084;-78
2022/06/22 18:34:02;;;;;;;18.90;12.02;;;;;;;20.71;98.07;95806.41;4909346;29;20060;-79
2022/06/22 18:36:35;;;;;;;20.33;13.60;;;;;;;20.69;98.06;95804.06;4895517;29;20052;-78
2022/06/22 18:42:04;;;;;;;21.30;13.23;;;;;;;20.55;97.27;95818.69;4897339;29;20019;-79
2022/06/22 18:44:40;;;;;;;18.30;11.82;;;;;;;20.56;97.09;95817.50;4893691;29;20044;-77
2022/06/22 18:47:14;;;;;;;15.50;11.07;;;;;;;20.58;97.36;95820.66;4893246;29;20061;-78
2022/06/22 18:49:44;;;;;;;18.50;11.60;;;;;;;20.57;97.82;95819.09;4893176;29;20053;-79
2022/06/22 18:52:16;;;;;;;25.75;14.75;;;;;;;20.54;97.63;95830.94;4896710;29;20470;-79
2022/06/22 18:54:49;;;;;;;22.27;13.82;;;;;;;20.51;96.98;95839.22;4914560;29;20083;-77
2022/06/22 18:57:20;;;;;;;;;;;;;;;20.52;96.62;95843.59;4913771;29;20044;-78
2022/06/22 18:59:50;;;;;;;20.08;12.75;;;;;;;20.48;96.65;95831.72;4914152;29;20006;-78
2022/06/22 19:02:25;;;;;;;21.45;12.75;;;;;;;20.50;96.63;95835.66;4913557;29;20059;-78
2022/06/22 19:04:56;;;;;;;21.02;12.63;;;;;;;20.49;96.81;95838.84;4914219;29;20072;-78
2022/06/22 19:07:23;;;;;;;21.00;12.40;;;;;;;20.47;97.24;95839.25;4904002;29;20056;-83
2022/06/22 19:09:54;;;;;;;16.40;12.40;;;;;;;20.49;97.25;95850.69;4916518;29;20060;-78
2022/06/22 19:12:34;;;;;;;20.75;12.57;;;;;;;20.50;97.58;95846.72;4921649;29;20040;-78
2022/06/22 19:15:06;;;;;;;22.33;14.00;;;;;;;20.48;97.67;95854.66;4929173;29;20097;-77
2022/06/22 19:17:48;;;;;;;16.60;11.95;;;;;;;20.48;97.72;95862.94;4919755;29;20051;-78
2022/06/22 19:20:35;;;;;;;14.18;10.43;;;;;;;20.47;97.96;95866.91;4918301;29;20083;-78
2022/06/22 19:23:24;;;;;;;14.27;11.45;;;;;;;20.48;98.22;95875.97;4922421;29;20064;-77
2022/06/22 19:25:57;;;;;;;17.55;12.63;;;;;;;20.47;98.06;95877.97;4911540;29;20152;-78
2022/06/22 19:28:33;;;;;;;18.90;12.98;;;;;;;20.46;98.43;95889.38;4911622;29;20051;-79
2022/06/22 19:31:14;;;;;;;19.77;13.48;;;;;;;20.42;98.30;95894.91;4904257;29;20511;-79
2022/06/22 19:33:50;;;;;;;20.10;13.23;;;;;;;20.42;98.22;95894.91;4903360;29;20049;-78
2022/06/22 19:36:25;;;;;;;24.35;13.90;;;;;;;20.43;97.81;95901.22;4900431;29;20044;-78
2022/06/22 19:39:00;;;;;;;21.50;13.40;;;;;;;20.40;97.73;95900.03;4900987;29;20559;-77
2022/06/22 19:41:33;;;;;;;19.30;12.23;;;;;;;20.40;97.55;95902.78;4900286;29;20044;-77
2022/06/22 19:44:20;;;;;;;20.42;12.52;;;;;;;20.42;97.43;95911.50;4896685;29;20497;-77
2022/06/22 19:47:12;;;;;;;20.48;12.57;;;;;;;20.42;97.22;95917.03;4900714;29;20048;-77
2022/06/22 19:49:50;;;;;;;22.98;15.95;;;;;;;20.36;97.04;95912.25;4899886;29;20045;-78
2022/06/22 19:55:26;;;;;;;23.05;16.40;;;;;;;20.22;98.01;95921.34;4888209;29;20041;-80
2022/06/22 19:57:52;;;;;;;22.85;14.23;;;;;;;20.25;97.41;95924.09;4897018;29;20077;-80
2022/06/22 20:00:19;;;;;;;21.17;15.30;;;;;;;20.29;97.39;95935.97;4883517;29;20049;-81
2022/06/22 20:02:50;;;;;;;21.52;14.57;;;;;;;20.30;97.72;95925.69;4884844;29;20060;-82